sensor_id;sensor_type;location;lat;lon;timestamp;temperature;humidity
20732;DHT22;10527;52.124;5.196;2023-08-08T00:01:50;16.00;99.90
20732;DHT22;10527;52.124;5.196;2023-08-08T00:04:17;16.00;99.90
20732;DHT22;10527;52.124;5.196;2023-08-08T00:06:47;16.00;99.90
20732;DHT22;10527;52.124;5.196;2023-08-08T00:09:14;16.00;99.90
20732;DHT22;10527;52.124;5.196;2023-08-08T00:11:41;16.00;99.90
20732;DHT22;10527;52.124;5.196;2023-08-08T00:14:08;16.10;99.90
20732;DHT22;10527;52.124;5.196;2023-08-08T00:16:35;16.00;99.90
20732;DHT22;10527;52.124;5.196;2023-08-08T00:19:01;16.10;99.90
20732;DHT22;10527;52.124;5.196;2023-08-08T00:21:29;16.10;99.90
20732;DHT22;10527;52.124;5.196;2023-08-08T00:23:56;16.10;99.90
20732;DHT22;10527;52.124;5.196;2023-08-08T00:26:23;16.10;99.90
20732;DHT22;10527;52.124;5.196;2023-08-08T00:28:50;16.10;99.90
20732;DHT22;10527;52.124;5.196;2023-08-08T00:31:18;16.00;99.90
20732;DHT22;10527;52.124;5.196;2023-08-08T00:33:46;15.90;99.90
20732;DHT22;10527;52.124;5.196;2023-08-08T00:36:13;16.00;99.90
20732;DHT22;10527;52.124;5.196;2023-08-08T00:38:40;16.00;99.90
20732;DHT22;10527;52.124;5.196;2023-08-08T00:41:07;16.00;99.90
20732;DHT22;10527;52.124;5.196;2023-08-08T00:43:34;16.00;99.90
20732;DHT22;10527;52.124;5.196;2023-08-08T00:46:07;16.00;99.90
20732;DHT22;10527;52.124;5.196;2023-08-08T00:48:34;16.00;99.90
20732;DHT22;10527;52.124;5.196;2023-08-08T00:51:01;16.10;99.90
20732;DHT22;10527;52.124;5.196;2023-08-08T00:53:30;16.00;99.90
20732;DHT22;10527;52.124;5.196;2023-08-08T00:55:58;16.10;99.90
20732;DHT22;10527;52.124;5.196;2023-08-08T00:58:26;16.10;99.90
20732;DHT22;10527;52.124;5.196;2023-08-08T01:00:55;16.10;99.90
20732;DHT22;10527;52.124;5.196;2023-08-08T01:03:24;16.10;99.90
20732;DHT22;10527;52.124;5.196;2023-08-08T01:06:01;16.10;99.90
20732;DHT22;10527;52.124;5.196;2023-08-08T01:08:45;16.10;99.90
20732;DHT22;10527;52.124;5.196;2023-08-08T01:11:17;16.10;99.90
20732;DHT22;10527;52.124;5.196;2023-08-08T01:13:45;16.10;99.90
20732;DHT22;10527;52.124;5.196;2023-08-08T01:16:13;16.10;99.90
20732;DHT22;10527;52.124;5.196;2023-08-08T01:18:47;16.10;99.90
20732;DHT22;10527;52.124;5.196;2023-08-08T01:21:15;16.10;99.90
20732;DHT22;10527;52.124;5.196;2023-08-08T01:24:00;16.10;99.90
20732;DHT22;10527;52.124;5.196;2023-08-08T01:26:40;16.10;99.90
20732;DHT22;10527;52.124;5.196;2023-08-08T01:29:10;16.10;99.90
20732;DHT22;10527;52.124;5.196;2023-08-08T01:31:39;16.10;99.90
20732;DHT22;10527;52.124;5.196;2023-08-08T01:34:07;16.10;99.90
20732;DHT22;10527;52.124;5.196;2023-08-08T01:36:53;16.10;99.90
20732;DHT22;10527;52.124;5.196;2023-08-08T01:39:27;16.10;99.90
20732;DHT22;10527;52.124;5.196;2023-08-08T01:41:58;16.10;99.90
20732;DHT22;10527;52.124;5.196;2023-08-08T01:44:28;16.10;99.90
20732;DHT22;10527;52.124;5.196;2023-08-08T01:46:58;16.10;99.90
20732;DHT22;10527;52.124;5.196;2023-08-08T01:49:28;16.00;99.90
20732;DHT22;10527;52.124;5.196;2023-08-08T01:51:58;16.10;99.90
20732;DHT22;10527;52.124;5.196;2023-08-08T01:54:25;16.00;99.90
20732;DHT22;10527;52.124;5.196;2023-08-08T01:56:52;16.00;99.90
20732;DHT22;10527;52.124;5.196;2023-08-08T01:59:19;16.10;99.90
20732;DHT22;10527;52.124;5.196;2023-08-08T02:01:46;16.10;99.90
20732;DHT22;10527;52.124;5.196;2023-08-08T02:04:13;16.00;99.90
20732;DHT22;10527;52.124;5.196;2023-08-08T02:06:43;16.10;99.90
20732;DHT22;10527;52.124;5.196;2023-08-08T02:09:12;16.10;99.90
20732;DHT22;10527;52.124;5.196;2023-08-08T02:11:42;16.10;99.90
20732;DHT22;10527;52.124;5.196;2023-08-08T02:14:09;16.10;99.90
20732;DHT22;10527;52.124;5.196;2023-08-08T02:16:39;16.10;99.90
20732;DHT22;10527;52.124;5.196;2023-08-08T02:19:06;16.10;99.90
20732;DHT22;10527;52.124;5.196;2023-08-08T02:21:33;16.10;99.90
20732;DHT22;10527;52.124;5.196;2023-08-08T02:24:00;16.10;99.90
20732;DHT22;10527;52.124;5.196;2023-08-08T02:26:26;16.10;99.90
20732;DHT22;10527;52.124;5.196;2023-08-08T02:28:53;16.10;99.90
20732;DHT22;10527;52.124;5.196;2023-08-08T02:31:20;16.00;99.90
20732;DHT22;10527;52.124;5.196;2023-08-08T02:33:50;16.00;99.90
20732;DHT22;10527;52.124;5.196;2023-08-08T02:36:18;16.00;99.90
20732;DHT22;10527;52.124;5.196;2023-08-08T02:38:45;16.10;99.90
20732;DHT22;10527;52.124;5.196;2023-08-08T02:41:11;16.10;99.90
20732;DHT22;10527;52.124;5.196;2023-08-08T02:43:41;16.20;99.90
20732;DHT22;10527;52.124;5.196;2023-08-08T02:46:11;16.20;99.90
20732;DHT22;10527;52.124;5.196;2023-08-08T02:48:37;16.30;99.90
20732;DHT22;10527;52.124;5.196;2023-08-08T02:51:04;16.30;99.90
20732;DHT22;10527;52.124;5.196;2023-08-08T02:53:31;16.40;99.90
20732;DHT22;10527;52.124;5.196;2023-08-08T02:55:58;16.40;99.90
20732;DHT22;10527;52.124;5.196;2023-08-08T02:58:25;16.30;99.90
20732;DHT22;10527;52.124;5.196;2023-08-08T03:00:52;16.20;99.90
20732;DHT22;10527;52.124;5.196;2023-08-08T03:03:19;16.20;99.90
20732;DHT22;10527;52.124;5.196;2023-08-08T03:05:46;16.10;99.90
20732;DHT22;10527;52.124;5.196;2023-08-08T03:08:20;16.00;99.90
20732;DHT22;10527;52.124;5.196;2023-08-08T03:10:50;16.00;99.90
20732;DHT22;10527;52.124;5.196;2023-08-08T03:13:16;16.00;99.90
20732;DHT22;10527;52.124;5.196;2023-08-08T03:15:43;15.90;99.90
20732;DHT22;10527;52.124;5.196;2023-08-08T03:18:10;15.90;99.90
20732;DHT22;10527;52.124;5.196;2023-08-08T03:20:37;15.80;99.90
20732;DHT22;10527;52.124;5.196;2023-08-08T03:23:04;15.80;99.90
20732;DHT22;10527;52.124;5.196;2023-08-08T03:25:31;15.70;99.90
20732;DHT22;10527;52.124;5.196;2023-08-08T03:27:58;15.70;99.90
20732;DHT22;10527;52.124;5.196;2023-08-08T03:30:25;15.80;99.90
20732;DHT22;10527;52.124;5.196;2023-08-08T03:32:52;15.80;99.90
20732;DHT22;10527;52.124;5.196;2023-08-08T03:35:19;15.80;99.90
20732;DHT22;10527;52.124;5.196;2023-08-08T03:37:48;15.80;99.90
20732;DHT22;10527;52.124;5.196;2023-08-08T03:40:15;15.80;99.90
20732;DHT22;10527;52.124;5.196;2023-08-08T03:42:48;15.70;99.90
20732;DHT22;10527;52.124;5.196;2023-08-08T03:45:14;15.70;99.90
20732;DHT22;10527;52.124;5.196;2023-08-08T03:47:44;15.70;99.90
20732;DHT22;10527;52.124;5.196;2023-08-08T03:50:11;15.70;99.90
20732;DHT22;10527;52.124;5.196;2023-08-08T03:52:38;15.70;99.90
20732;DHT22;10527;52.124;5.196;2023-08-08T03:55:06;15.70;99.90
20732;DHT22;10527;52.124;5.196;2023-08-08T03:57:33;15.70;99.90
20732;DHT22;10527;52.124;5.196;2023-08-08T04:00:00;15.80;99.90
20732;DHT22;10527;52.124;5.196;2023-08-08T04:02:27;15.70;99.90
20732;DHT22;10527;52.124;5.196;2023-08-08T04:04:54;15.60;99.90
20732;DHT22;10527;52.124;5.196;2023-08-08T04:07:21;15.60;99.90
20732;DHT22;10527;52.124;5.196;2023-08-08T04:09:48;15.50;99.90
20732;DHT22;10527;52.124;5.196;2023-08-08T04:12:15;15.60;99.90
20732;DHT22;10527;52.124;5.196;2023-08-08T04:14:44;15.60;99.90
20732;DHT22;10527;52.124;5.196;2023-08-08T04:17:11;15.50;99.90
20732;DHT22;10527;52.124;5.196;2023-08-08T04:19:38;15.50;99.90
20732;DHT22;10527;52.124;5.196;2023-08-08T04:22:05;15.50;99.90
20732;DHT22;10527;52.124;5.196;2023-08-08T04:24:32;15.40;99.90
20732;DHT22;10527;52.124;5.196;2023-08-08T04:26:59;15.40;99.90
20732;DHT22;10527;52.124;5.196;2023-08-08T04:29:29;15.40;99.90
20732;DHT22;10527;52.124;5.196;2023-08-08T04:31:56;15.40;99.90
20732;DHT22;10527;52.124;5.196;2023-08-08T04:34:23;15.40;99.90
20732;DHT22;10527;52.124;5.196;2023-08-08T04:36:50;15.40;99.90
20732;DHT22;10527;52.124;5.196;2023-08-08T04:39:17;15.40;99.90
20732;DHT22;10527;52.124;5.196;2023-08-08T04:41:46;15.40;99.90
20732;DHT22;10527;52.124;5.196;2023-08-08T04:44:13;15.40;99.90
20732;DHT22;10527;52.124;5.196;2023-08-08T04:46:40;15.30;99.90
20732;DHT22;10527;52.124;5.196;2023-08-08T04:49:07;15.40;99.90
20732;DHT22;10527;52.124;5.196;2023-08-08T04:51:42;15.30;99.90
20732;DHT22;10527;52.124;5.196;2023-08-08T04:54:09;15.40;99.90
20732;DHT22;10527;52.124;5.196;2023-08-08T04:56:35;15.30;99.90
20732;DHT22;10527;52.124;5.196;2023-08-08T04:59:02;15.30;99.90
20732;DHT22;10527;52.124;5.196;2023-08-08T05:01:29;15.30;99.90
20732;DHT22;10527;52.124;5.196;2023-08-08T05:03:56;15.30;99.90
20732;DHT22;10527;52.124;5.196;2023-08-08T05:06:26;15.30;99.90
20732;DHT22;10527;52.124;5.196;2023-08-08T05:08:53;15.30;99.90
20732;DHT22;10527;52.124;5.196;2023-08-08T05:11:23;15.30;99.90
20732;DHT22;10527;52.124;5.196;2023-08-08T05:13:50;15.30;99.90
20732;DHT22;10527;52.124;5.196;2023-08-08T05:16:17;15.30;99.90
20732;DHT22;10527;52.124;5.196;2023-08-08T05:18:44;15.30;99.90
20732;DHT22;10527;52.124;5.196;2023-08-08T05:21:11;15.20;99.90
20732;DHT22;10527;52.124;5.196;2023-08-08T05:23:38;15.30;99.90
20732;DHT22;10527;52.124;5.196;2023-08-08T05:26:05;15.20;99.90
20732;DHT22;10527;52.124;5.196;2023-08-08T05:28:32;15.30;99.90
20732;DHT22;10527;52.124;5.196;2023-08-08T05:30:59;15.30;99.90
20732;DHT22;10527;52.124;5.196;2023-08-08T05:33:26;15.40;99.90
20732;DHT22;10527;52.124;5.196;2023-08-08T05:35:53;15.40;99.90
20732;DHT22;10527;52.124;5.196;2023-08-08T05:38:20;15.50;99.90
20732;DHT22;10527;52.124;5.196;2023-08-08T05:40:53;15.50;99.90
20732;DHT22;10527;52.124;5.196;2023-08-08T05:43:20;15.50;99.90
20732;DHT22;10527;52.124;5.196;2023-08-08T05:45:48;15.50;99.90
20732;DHT22;10527;52.124;5.196;2023-08-08T05:48:17;15.40;99.90
20732;DHT22;10527;52.124;5.196;2023-08-08T05:50:44;15.50;99.90
20732;DHT22;10527;52.124;5.196;2023-08-08T05:53:15;15.50;99.90
20732;DHT22;10527;52.124;5.196;2023-08-08T05:55:42;15.50;99.90
20732;DHT22;10527;52.124;5.196;2023-08-08T05:58:09;15.50;99.90
20732;DHT22;10527;52.124;5.196;2023-08-08T06:00:41;15.50;99.90
20732;DHT22;10527;52.124;5.196;2023-08-08T06:03:12;15.60;99.90
20732;DHT22;10527;52.124;5.196;2023-08-08T06:05:39;15.60;99.90
20732;DHT22;10527;52.124;5.196;2023-08-08T06:08:06;15.70;99.90
20732;DHT22;10527;52.124;5.196;2023-08-08T06:10:37;15.70;99.90
20732;DHT22;10527;52.124;5.196;2023-08-08T06:13:04;15.80;99.90
20732;DHT22;10527;52.124;5.196;2023-08-08T06:15:31;15.80;99.90
20732;DHT22;10527;52.124;5.196;2023-08-08T06:17:59;15.90;99.90
20732;DHT22;10527;52.124;5.196;2023-08-08T06:20:26;15.90;99.90
20732;DHT22;10527;52.124;5.196;2023-08-08T06:22:55;15.80;99.90
20732;DHT22;10527;52.124;5.196;2023-08-08T06:25:22;15.90;99.90
20732;DHT22;10527;52.124;5.196;2023-08-08T06:27:49;16.00;99.90
20732;DHT22;10527;52.124;5.196;2023-08-08T06:30:16;15.90;99.90
20732;DHT22;10527;52.124;5.196;2023-08-08T06:32:45;15.90;99.90
20732;DHT22;10527;52.124;5.196;2023-08-08T06:35:14;16.00;99.90
20732;DHT22;10527;52.124;5.196;2023-08-08T06:37:43;16.00;99.90
20732;DHT22;10527;52.124;5.196;2023-08-08T06:40:11;15.90;99.90
20732;DHT22;10527;52.124;5.196;2023-08-08T06:42:39;15.90;99.90
20732;DHT22;10527;52.124;5.196;2023-08-08T06:45:06;15.90;99.90
20732;DHT22;10527;52.124;5.196;2023-08-08T06:47:36;16.00;99.90
20732;DHT22;10527;52.124;5.196;2023-08-08T06:50:04;16.00;99.90
20732;DHT22;10527;52.124;5.196;2023-08-08T06:52:31;16.00;99.90
20732;DHT22;10527;52.124;5.196;2023-08-08T06:54:58;16.00;99.90
20732;DHT22;10527;52.124;5.196;2023-08-08T06:57:32;16.10;99.90
20732;DHT22;10527;52.124;5.196;2023-08-08T07:00:00;16.10;99.90
20732;DHT22;10527;52.124;5.196;2023-08-08T07:02:34;16.10;99.90
20732;DHT22;10527;52.124;5.196;2023-08-08T07:05:01;16.20;99.90
20732;DHT22;10527;52.124;5.196;2023-08-08T07:07:30;16.20;99.90
20732;DHT22;10527;52.124;5.196;2023-08-08T07:09:59;16.20;99.90
20732;DHT22;10527;52.124;5.196;2023-08-08T07:12:26;16.30;99.90
20732;DHT22;10527;52.124;5.196;2023-08-08T07:14:53;16.30;99.90
20732;DHT22;10527;52.124;5.196;2023-08-08T07:17:21;16.40;99.90
20732;DHT22;10527;52.124;5.196;2023-08-08T07:19:47;16.40;99.90
20732;DHT22;10527;52.124;5.196;2023-08-08T07:22:14;16.40;99.90
20732;DHT22;10527;52.124;5.196;2023-08-08T07:24:41;16.40;99.90
20732;DHT22;10527;52.124;5.196;2023-08-08T07:27:08;16.40;99.90
20732;DHT22;10527;52.124;5.196;2023-08-08T07:29:35;16.60;99.90
20732;DHT22;10527;52.124;5.196;2023-08-08T07:32:03;16.60;99.90
20732;DHT22;10527;52.124;5.196;2023-08-08T07:34:31;16.60;99.90
20732;DHT22;10527;52.124;5.196;2023-08-08T07:36:59;16.70;99.90
20732;DHT22;10527;52.124;5.196;2023-08-08T07:39:26;16.70;99.90
20732;DHT22;10527;52.124;5.196;2023-08-08T07:41:53;16.80;99.90
20732;DHT22;10527;52.124;5.196;2023-08-08T07:44:20;16.70;99.90
20732;DHT22;10527;52.124;5.196;2023-08-08T07:46:47;16.70;99.90
20732;DHT22;10527;52.124;5.196;2023-08-08T07:49:14;16.70;99.90
20732;DHT22;10527;52.124;5.196;2023-08-08T07:51:41;16.80;99.90
20732;DHT22;10527;52.124;5.196;2023-08-08T07:54:08;16.80;99.90
20732;DHT22;10527;52.124;5.196;2023-08-08T07:56:37;16.90;99.90
20732;DHT22;10527;52.124;5.196;2023-08-08T07:59:04;16.90;99.90
20732;DHT22;10527;52.124;5.196;2023-08-08T08:01:31;17.00;99.90
20732;DHT22;10527;52.124;5.196;2023-08-08T08:03:58;17.10;99.90
20732;DHT22;10527;52.124;5.196;2023-08-08T08:06:25;17.10;99.90
20732;DHT22;10527;52.124;5.196;2023-08-08T08:08:53;17.10;99.90
20732;DHT22;10527;52.124;5.196;2023-08-08T08:11:20;17.20;99.90
20732;DHT22;10527;52.124;5.196;2023-08-08T08:13:47;17.30;99.90
20732;DHT22;10527;52.124;5.196;2023-08-08T08:16:14;17.30;99.90
20732;DHT22;10527;52.124;5.196;2023-08-08T08:18:41;17.60;99.90
20732;DHT22;10527;52.124;5.196;2023-08-08T08:21:08;17.80;99.90
20732;DHT22;10527;52.124;5.196;2023-08-08T08:23:35;18.00;99.90
20732;DHT22;10527;52.124;5.196;2023-08-08T08:26:02;18.00;99.90
20732;DHT22;10527;52.124;5.196;2023-08-08T08:28:29;18.20;99.90
20732;DHT22;10527;52.124;5.196;2023-08-08T08:30:57;18.30;99.90
20732;DHT22;10527;52.124;5.196;2023-08-08T08:33:24;18.40;99.90
20732;DHT22;10527;52.124;5.196;2023-08-08T08:35:50;18.40;99.90
20732;DHT22;10527;52.124;5.196;2023-08-08T08:38:17;18.70;99.90
20732;DHT22;10527;52.124;5.196;2023-08-08T08:40:45;18.90;99.90
20732;DHT22;10527;52.124;5.196;2023-08-08T08:43:15;19.00;99.90
20732;DHT22;10527;52.124;5.196;2023-08-08T08:45:51;18.90;99.90
20732;DHT22;10527;52.124;5.196;2023-08-08T08:48:21;18.80;99.90
20732;DHT22;10527;52.124;5.196;2023-08-08T08:50:49;18.50;99.90
20732;DHT22;10527;52.124;5.196;2023-08-08T08:53:17;18.60;99.90
20732;DHT22;10527;52.124;5.196;2023-08-08T08:55:44;18.50;99.90
20732;DHT22;10527;52.124;5.196;2023-08-08T08:58:14;18.30;99.90
20732;DHT22;10527;52.124;5.196;2023-08-08T09:00:46;18.30;99.90
20732;DHT22;10527;52.124;5.196;2023-08-08T09:03:14;18.10;99.90
20732;DHT22;10527;52.124;5.196;2023-08-08T09:05:43;18.20;99.90
20732;DHT22;10527;52.124;5.196;2023-08-08T09:08:11;18.10;99.90
20732;DHT22;10527;52.124;5.196;2023-08-08T09:10:38;18.00;99.90
20732;DHT22;10527;52.124;5.196;2023-08-08T09:13:06;18.20;99.90
20732;DHT22;10527;52.124;5.196;2023-08-08T09:15:37;18.40;99.90
20732;DHT22;10527;52.124;5.196;2023-08-08T09:18:04;18.20;99.90
20732;DHT22;10527;52.124;5.196;2023-08-08T09:20:32;18.20;99.90
20732;DHT22;10527;52.124;5.196;2023-08-08T09:22:59;18.20;99.90
20732;DHT22;10527;52.124;5.196;2023-08-08T09:25:29;18.60;99.90
20732;DHT22;10527;52.124;5.196;2023-08-08T09:27:56;19.00;99.90
20732;DHT22;10527;52.124;5.196;2023-08-08T09:30:23;18.70;99.90
20732;DHT22;10527;52.124;5.196;2023-08-08T09:32:50;18.50;99.90
20732;DHT22;10527;52.124;5.196;2023-08-08T09:35:17;18.70;99.90
20732;DHT22;10527;52.124;5.196;2023-08-08T09:37:45;19.00;99.90
20732;DHT22;10527;52.124;5.196;2023-08-08T09:40:12;18.90;99.90
20732;DHT22;10527;52.124;5.196;2023-08-08T09:42:40;18.60;99.90
20732;DHT22;10527;52.124;5.196;2023-08-08T09:45:10;18.40;99.90
20732;DHT22;10527;52.124;5.196;2023-08-08T09:47:37;18.50;99.90
20732;DHT22;10527;52.124;5.196;2023-08-08T09:50:05;18.60;99.90
20732;DHT22;10527;52.124;5.196;2023-08-08T09:52:34;18.40;99.90
20732;DHT22;10527;52.124;5.196;2023-08-08T09:55:03;18.40;99.90
20732;DHT22;10527;52.124;5.196;2023-08-08T09:57:32;18.40;99.90
20732;DHT22;10527;52.124;5.196;2023-08-08T10:00:00;18.80;99.90
20732;DHT22;10527;52.124;5.196;2023-08-08T10:02:29;18.90;99.90
20732;DHT22;10527;52.124;5.196;2023-08-08T10:04:59;19.00;99.90
20732;DHT22;10527;52.124;5.196;2023-08-08T10:07:27;19.10;99.90
20732;DHT22;10527;52.124;5.196;2023-08-08T10:09:54;19.00;99.90
20732;DHT22;10527;52.124;5.196;2023-08-08T10:12:23;19.20;99.90
20732;DHT22;10527;52.124;5.196;2023-08-08T10:14:52;19.60;99.90
20732;DHT22;10527;52.124;5.196;2023-08-08T10:17:19;19.40;99.90
20732;DHT22;10527;52.124;5.196;2023-08-08T10:19:53;19.00;99.90
20732;DHT22;10527;52.124;5.196;2023-08-08T10:22:24;19.10;99.90
20732;DHT22;10527;52.124;5.196;2023-08-08T10:24:53;19.20;99.90
20732;DHT22;10527;52.124;5.196;2023-08-08T10:27:28;19.20;99.90
20732;DHT22;10527;52.124;5.196;2023-08-08T10:30:16;19.10;99.90
20732;DHT22;10527;52.124;5.196;2023-08-08T10:32:44;18.90;99.90
20732;DHT22;10527;52.124;5.196;2023-08-08T10:35:15;19.10;99.90
20732;DHT22;10527;52.124;5.196;2023-08-08T10:37:52;18.90;99.90
20732;DHT22;10527;52.124;5.196;2023-08-08T10:40:20;19.10;99.90
20732;DHT22;10527;52.124;5.196;2023-08-08T10:42:47;19.00;99.90
20732;DHT22;10527;52.124;5.196;2023-08-08T10:45:15;19.20;99.90
20732;DHT22;10527;52.124;5.196;2023-08-08T10:47:44;19.10;99.90
20732;DHT22;10527;52.124;5.196;2023-08-08T10:50:15;19.20;99.90
20732;DHT22;10527;52.124;5.196;2023-08-08T10:53:01;19.20;99.90
20732;DHT22;10527;52.124;5.196;2023-08-08T10:55:34;19.20;99.90
20732;DHT22;10527;52.124;5.196;2023-08-08T10:58:07;19.40;99.90
20732;DHT22;10527;52.124;5.196;2023-08-08T11:00:39;19.40;99.90
20732;DHT22;10527;52.124;5.196;2023-08-08T11:03:10;19.30;99.90
20732;DHT22;10527;52.124;5.196;2023-08-08T11:05:38;19.60;99.90
20732;DHT22;10527;52.124;5.196;2023-08-08T11:08:06;19.40;99.90
20732;DHT22;10527;52.124;5.196;2023-08-08T11:10:38;19.20;99.90
20732;DHT22;10527;52.124;5.196;2023-08-08T11:13:19;19.60;99.90
20732;DHT22;10527;52.124;5.196;2023-08-08T11:15:49;19.30;99.90
20732;DHT22;10527;52.124;5.196;2023-08-08T11:18:16;19.40;99.90
20732;DHT22;10527;52.124;5.196;2023-08-08T11:20:45;19.30;99.90
20732;DHT22;10527;52.124;5.196;2023-08-08T11:23:12;19.50;99.90
20732;DHT22;10527;52.124;5.196;2023-08-08T11:25:42;19.50;99.90
20732;DHT22;10527;52.124;5.196;2023-08-08T11:28:11;19.70;99.90
20732;DHT22;10527;52.124;5.196;2023-08-08T11:30:43;19.50;99.90
20732;DHT22;10527;52.124;5.196;2023-08-08T11:33:14;19.50;99.90
20732;DHT22;10527;52.124;5.196;2023-08-08T11:35:50;19.90;99.90
20732;DHT22;10527;52.124;5.196;2023-08-08T11:38:17;20.10;99.90
20732;DHT22;10527;52.124;5.196;2023-08-08T11:40:46;20.20;99.90
20732;DHT22;10527;52.124;5.196;2023-08-08T11:43:13;20.30;99.90
20732;DHT22;10527;52.124;5.196;2023-08-08T11:45:40;20.50;99.90
20732;DHT22;10527;52.124;5.196;2023-08-08T11:48:10;20.50;99.90
20732;DHT22;10527;52.124;5.196;2023-08-08T11:50:37;20.30;99.90
20732;DHT22;10527;52.124;5.196;2023-08-08T11:53:07;19.90;99.90
20732;DHT22;10527;52.124;5.196;2023-08-08T11:55:36;19.60;99.90
20732;DHT22;10527;52.124;5.196;2023-08-08T11:58:03;20.00;99.90
20732;DHT22;10527;52.124;5.196;2023-08-08T12:00:32;19.80;99.90
20732;DHT22;10527;52.124;5.196;2023-08-08T12:03:01;19.80;99.90
20732;DHT22;10527;52.124;5.196;2023-08-08T12:05:36;19.70;99.90
20732;DHT22;10527;52.124;5.196;2023-08-08T12:08:05;19.80;99.90
20732;DHT22;10527;52.124;5.196;2023-08-08T12:10:33;19.90;99.90
20732;DHT22;10527;52.124;5.196;2023-08-08T12:13:00;20.00;99.90
20732;DHT22;10527;52.124;5.196;2023-08-08T12:15:35;20.00;99.90
20732;DHT22;10527;52.124;5.196;2023-08-08T12:18:02;19.60;99.90
20732;DHT22;10527;52.124;5.196;2023-08-08T12:20:31;19.60;99.90
20732;DHT22;10527;52.124;5.196;2023-08-08T12:23:00;19.70;99.90
20732;DHT22;10527;52.124;5.196;2023-08-08T12:25:27;19.70;99.90
20732;DHT22;10527;52.124;5.196;2023-08-08T12:27:55;19.60;99.90
20732;DHT22;10527;52.124;5.196;2023-08-08T12:30:22;19.70;99.90
20732;DHT22;10527;52.124;5.196;2023-08-08T12:32:49;19.90;99.90
20732;DHT22;10527;52.124;5.196;2023-08-08T12:35:16;20.10;99.90
20732;DHT22;10527;52.124;5.196;2023-08-08T12:37:43;20.10;99.90
20732;DHT22;10527;52.124;5.196;2023-08-08T12:40:11;20.30;99.90
20732;DHT22;10527;52.124;5.196;2023-08-08T12:42:39;20.10;99.90
20732;DHT22;10527;52.124;5.196;2023-08-08T12:45:08;20.00;99.90
20732;DHT22;10527;52.124;5.196;2023-08-08T12:47:37;19.70;99.90
20732;DHT22;10527;52.124;5.196;2023-08-08T12:50:06;19.50;99.90
20732;DHT22;10527;52.124;5.196;2023-08-08T12:52:35;19.60;99.90
20732;DHT22;10527;52.124;5.196;2023-08-08T12:55:03;19.60;99.90
20732;DHT22;10527;52.124;5.196;2023-08-08T12:57:31;19.60;99.90
20732;DHT22;10527;52.124;5.196;2023-08-08T12:59:58;19.40;99.90
20732;DHT22;10527;52.124;5.196;2023-08-08T13:02:25;19.70;99.90
20732;DHT22;10527;52.124;5.196;2023-08-08T13:04:52;20.00;99.90
20732;DHT22;10527;52.124;5.196;2023-08-08T13:07:20;20.00;99.90
20732;DHT22;10527;52.124;5.196;2023-08-08T13:09:48;19.60;99.90
20732;DHT22;10527;52.124;5.196;2023-08-08T13:12:15;19.60;99.90
20732;DHT22;10527;52.124;5.196;2023-08-08T13:14:42;19.70;99.90
20732;DHT22;10527;52.124;5.196;2023-08-08T13:17:09;19.70;99.90
20732;DHT22;10527;52.124;5.196;2023-08-08T13:19:37;19.90;99.90
20732;DHT22;10527;52.124;5.196;2023-08-08T13:22:04;20.30;99.90
20732;DHT22;10527;52.124;5.196;2023-08-08T13:24:31;20.40;99.90
20732;DHT22;10527;52.124;5.196;2023-08-08T13:26:58;20.60;99.90
20732;DHT22;10527;52.124;5.196;2023-08-08T13:29:25;20.40;99.90
20732;DHT22;10527;52.124;5.196;2023-08-08T13:31:52;20.30;99.90
20732;DHT22;10527;52.124;5.196;2023-08-08T13:34:19;20.00;99.90
20732;DHT22;10527;52.124;5.196;2023-08-08T13:36:46;19.60;99.90
20732;DHT22;10527;52.124;5.196;2023-08-08T13:39:12;19.50;99.90
20732;DHT22;10527;52.124;5.196;2023-08-08T13:41:43;19.40;99.90
20732;DHT22;10527;52.124;5.196;2023-08-08T13:44:10;19.60;99.90
20732;DHT22;10527;52.124;5.196;2023-08-08T13:46:42;19.80;99.90
20732;DHT22;10527;52.124;5.196;2023-08-08T13:49:14;19.70;99.90
20732;DHT22;10527;52.124;5.196;2023-08-08T13:51:41;19.70;99.90
20732;DHT22;10527;52.124;5.196;2023-08-08T13:54:10;19.60;99.90
20732;DHT22;10527;52.124;5.196;2023-08-08T13:56:37;19.60;99.90
20732;DHT22;10527;52.124;5.196;2023-08-08T13:59:04;19.60;99.90
20732;DHT22;10527;52.124;5.196;2023-08-08T14:01:31;19.50;99.90
20732;DHT22;10527;52.124;5.196;2023-08-08T14:04:02;19.60;99.90
20732;DHT22;10527;52.124;5.196;2023-08-08T14:06:29;19.60;99.90
20732;DHT22;10527;52.124;5.196;2023-08-08T14:08:57;19.60;99.90
20732;DHT22;10527;52.124;5.196;2023-08-08T14:11:27;19.60;99.90
20732;DHT22;10527;52.124;5.196;2023-08-08T14:13:54;19.50;99.90
20732;DHT22;10527;52.124;5.196;2023-08-08T14:16:20;19.80;99.90
20732;DHT22;10527;52.124;5.196;2023-08-08T14:18:47;20.00;99.90
20732;DHT22;10527;52.124;5.196;2023-08-08T14:21:15;20.20;99.90
20732;DHT22;10527;52.124;5.196;2023-08-08T14:23:44;20.20;99.90
20732;DHT22;10527;52.124;5.196;2023-08-08T14:26:11;20.00;99.90
20732;DHT22;10527;52.124;5.196;2023-08-08T14:28:38;19.60;99.90
20732;DHT22;10527;52.124;5.196;2023-08-08T14:31:05;19.80;99.90
20732;DHT22;10527;52.124;5.196;2023-08-08T14:33:33;19.90;99.90
20732;DHT22;10527;52.124;5.196;2023-08-08T14:36:00;20.20;99.90
20732;DHT22;10527;52.124;5.196;2023-08-08T14:38:27;20.20;99.90
20732;DHT22;10527;52.124;5.196;2023-08-08T14:40:54;20.00;99.90
20732;DHT22;10527;52.124;5.196;2023-08-08T14:43:21;20.00;99.90
20732;DHT22;10527;52.124;5.196;2023-08-08T14:45:49;19.80;99.90
20732;DHT22;10527;52.124;5.196;2023-08-08T14:48:16;19.90;99.90
20732;DHT22;10527;52.124;5.196;2023-08-08T14:50:43;19.70;99.90
20732;DHT22;10527;52.124;5.196;2023-08-08T14:53:10;19.70;99.90
20732;DHT22;10527;52.124;5.196;2023-08-08T14:55:37;19.60;99.90
20732;DHT22;10527;52.124;5.196;2023-08-08T14:58:04;19.80;99.90
20732;DHT22;10527;52.124;5.196;2023-08-08T15:00:31;19.70;99.90
20732;DHT22;10527;52.124;5.196;2023-08-08T15:02:58;20.10;99.90
20732;DHT22;10527;52.124;5.196;2023-08-08T15:05:25;19.90;99.90
20732;DHT22;10527;52.124;5.196;2023-08-08T15:07:52;19.80;99.90
20732;DHT22;10527;52.124;5.196;2023-08-08T15:10:19;20.00;99.90
20732;DHT22;10527;52.124;5.196;2023-08-08T15:12:49;20.10;99.90
20732;DHT22;10527;52.124;5.196;2023-08-08T15:15:16;20.00;99.90
20732;DHT22;10527;52.124;5.196;2023-08-08T15:17:43;20.20;99.90
20732;DHT22;10527;52.124;5.196;2023-08-08T15:20:11;20.00;99.90
20732;DHT22;10527;52.124;5.196;2023-08-08T15:22:38;19.80;99.90
20732;DHT22;10527;52.124;5.196;2023-08-08T15:25:05;19.90;99.90
20732;DHT22;10527;52.124;5.196;2023-08-08T15:27:32;19.90;99.90
20732;DHT22;10527;52.124;5.196;2023-08-08T15:29:59;19.80;99.90
20732;DHT22;10527;52.124;5.196;2023-08-08T15:32:26;19.70;99.90
20732;DHT22;10527;52.124;5.196;2023-08-08T15:34:53;19.60;99.90
20732;DHT22;10527;52.124;5.196;2023-08-08T15:37:20;19.50;99.90